createdAt,value
2023-05-01T00:01:12.117Z,11.50
2023-05-01T00:03:14.680Z,11.27
2023-05-01T00:05:16.707Z,11.90
2023-05-01T00:07:18.615Z,11.02
2023-05-01T00:09:20.384Z,11.38
2023-05-01T00:11:22.885Z,10.85
2023-05-01T00:13:25.207Z,10.95
2023-05-01T00:15:29.870Z,10.32
2023-05-01T00:17:31.971Z,10.73
2023-05-01T00:19:33.820Z,11.10
2023-05-01T00:21:35.620Z,10.18
2023-05-01T00:23:37.444Z,11.07
2023-05-01T00:25:39.749Z,11.48
2023-05-01T00:27:41.444Z,11.73
2023-05-01T00:29:43.228Z,10.93
2023-05-01T00:31:45.840Z,11.57
2023-05-01T00:33:47.577Z,10.93
2023-05-01T00:35:49.317Z,12.07
2023-05-01T00:37:51.022Z,10.52
2023-05-01T00:39:52.766Z,10.55
2023-05-01T00:41:56.183Z,10.65
2023-05-01T00:43:58.458Z,10.10
2023-05-01T00:46:00.226Z,8.70
2023-05-01T00:48:02.595Z,8.95
2023-05-01T00:50:05.986Z,9.85
2023-05-01T00:52:09.941Z,8.65
2023-05-01T00:54:11.815Z,9.05
2023-05-01T00:56:15.255Z,7.57
2023-05-01T00:58:18.834Z,9.48
2023-05-01T01:00:22.613Z,7.90
2023-05-01T01:02:24.591Z,8.93
2023-05-01T01:04:28.759Z,9.48
2023-05-01T01:06:47.282Z,8.70
2023-05-01T01:09:10.083Z,8.60
2023-05-01T01:11:18.031Z,10.23
2023-05-01T01:13:28.052Z,10.60
2023-05-01T01:15:37.752Z,9.65
2023-05-01T01:17:59.190Z,10.90
2023-05-01T01:20:20.153Z,10.48
2023-05-01T01:22:26.916Z,10.40
2023-05-01T01:24:48.001Z,11.95
2023-05-01T01:26:59.507Z,10.98
2023-05-01T01:29:15.168Z,10.73
2023-05-01T01:31:20.661Z,12.40
2023-05-01T01:33:33.059Z,12.18
2023-05-01T01:35:39.098Z,12.05
2023-05-01T01:37:48.777Z,10.98
2023-05-01T01:40:01.631Z,12.82
2023-05-01T01:42:09.800Z,11.95
2023-05-01T01:44:21.354Z,11.82
2023-05-01T01:46:25.130Z,12.68
2023-05-01T01:48:32.026Z,12.27
2023-05-01T01:50:36.847Z,13.32
2023-05-01T01:52:42.975Z,12.23
2023-05-01T01:54:52.190Z,11.93
2023-05-01T01:56:55.445Z,12.63
2023-05-01T01:58:58.427Z,13.05
2023-05-01T02:01:00.633Z,11.65
2023-05-01T02:03:03.837Z,12.60
2023-05-01T02:05:12.000Z,13.38
2023-05-01T02:07:15.443Z,13.52
2023-05-01T02:09:19.827Z,12.68
2023-05-01T02:11:22.548Z,13.25
2023-05-01T02:13:25.118Z,12.63
2023-05-01T02:15:28.263Z,13.27
2023-05-01T02:17:31.331Z,12.27
2023-05-01T02:19:34.860Z,13.50
2023-05-01T02:21:37.865Z,12.55
2023-05-01T02:23:39.894Z,13.75
2023-05-01T02:25:43.841Z,13.18
2023-05-01T02:27:50.994Z,13.43
2023-05-01T02:29:53.751Z,12.80
2023-05-01T02:31:56.188Z,13.88
2023-05-01T02:33:58.428Z,13.18
2023-05-01T02:36:00.141Z,14.27
2023-05-01T02:38:01.944Z,12.43
2023-05-01T02:40:04.536Z,13.73
2023-05-01T02:42:09.706Z,13.93
2023-05-01T02:44:12.362Z,13.02
2023-05-01T02:46:17.702Z,13.63
2023-05-01T02:48:28.728Z,13.20
2023-05-01T02:50:31.669Z,14.05
2023-05-01T02:52:34.240Z,14.18
2023-05-01T02:54:36.376Z,13.80
2023-05-01T02:56:40.783Z,12.82
2023-05-01T02:58:43.070Z,13.10
2023-05-01T03:00:45.708Z,13.40
2023-05-01T03:02:47.537Z,13.45
2023-05-01T03:04:49.847Z,14.00
2023-05-01T03:06:52.261Z,12.85
2023-05-01T03:08:54.256Z,13.30
2023-05-01T03:10:56.047Z,13.10
2023-05-01T03:12:57.792Z,14.07
2023-05-01T03:14:59.672Z,14.07
2023-05-01T03:17:01.581Z,12.98
2023-05-01T03:19:03.509Z,14.48
2023-05-01T03:21:05.321Z,13.60
2023-05-01T03:23:07.717Z,13.93
2023-05-01T03:25:10.299Z,13.82
2023-05-01T03:27:12.139Z,14.75
2023-05-01T03:29:14.135Z,13.18
2023-05-01T03:31:15.947Z,13.13
2023-05-01T03:33:17.667Z,13.15
2023-05-01T03:35:22.703Z,13.88
2023-05-01T03:37:24.872Z,13.20
2023-05-01T03:39:26.605Z,13.25
2023-05-01T03:41:28.398Z,13.13
2023-05-01T03:43:30.112Z,13.48
2023-05-01T03:45:31.957Z,13.98
2023-05-01T03:47:33.892Z,11.73
2023-05-01T03:49:35.653Z,11.45
2023-05-01T03:51:39.985Z,11.15
2023-05-01T03:53:41.909Z,8.45
2023-05-01T03:55:44.155Z,7.45
2023-05-01T03:57:47.383Z,6.43
2023-05-01T03:59:50.012Z,6.10
2023-05-01T04:01:52.054Z,5.78
2023-05-01T04:03:56.435Z,6.20
2023-05-01T04:05:58.368Z,6.47
2023-05-01T04:08:02.657Z,5.47
2023-05-01T04:10:04.923Z,5.78
2023-05-01T04:12:06.681Z,5.18
2023-05-01T04:14:08.520Z,5.30
2023-05-01T04:16:10.349Z,4.97
2023-05-01T04:18:12.683Z,4.47
2023-05-01T04:20:14.764Z,5.00
2023-05-01T04:22:16.794Z,4.55
2023-05-01T04:24:18.816Z,4.78
2023-05-01T04:26:20.570Z,4.45
2023-05-01T04:28:22.377Z,3.40
2023-05-01T04:30:24.047Z,3.13
2023-05-01T04:32:25.814Z,3.13
2023-05-01T04:34:29.459Z,3.10
2023-05-01T04:36:32.989Z,3.05
2023-05-01T04:38:37.199Z,2.60
2023-05-01T04:40:38.975Z,3.13
2023-05-01T04:42:40.755Z,2.97
2023-05-01T04:44:43.004Z,2.63
2023-05-01T04:46:45.172Z,2.83
2023-05-01T04:48:47.028Z,2.90
2023-05-01T04:50:48.970Z,2.28
2023-05-01T04:52:50.774Z,3.28
2023-05-01T04:54:52.482Z,2.40
2023-05-01T04:56:54.279Z,3.10
2023-05-01T04:58:57.230Z,2.75
2023-05-01T05:00:59.069Z,2.75
2023-05-01T05:03:01.138Z,2.38
2023-05-01T05:05:03.074Z,2.05
2023-05-01T05:07:04.852Z,1.98
2023-05-01T05:09:06.636Z,2.72
2023-05-01T05:11:08.628Z,1.40
2023-05-01T05:13:10.881Z,1.40
2023-05-01T05:15:12.726Z,1.58
2023-05-01T05:17:14.510Z,1.40
2023-05-01T05:19:16.711Z,1.38
2023-05-01T05:21:18.912Z,1.60
2023-05-01T05:23:21.595Z,1.30
2023-05-01T05:25:24.423Z,1.58
2023-05-01T05:27:26.166Z,1.40
2023-05-01T05:29:27.991Z,1.55
2023-05-01T05:31:29.814Z,1.70
2023-05-01T05:33:31.548Z,1.50
2023-05-01T05:35:33.325Z,1.30
2023-05-01T05:37:35.223Z,1.50
2023-05-01T05:39:37.126Z,1.75
2023-05-01T05:41:38.946Z,1.38
2023-05-01T05:43:43.092Z,1.58
2023-05-01T05:45:44.917Z,1.58
2023-05-01T05:47:46.765Z,1.85
2023-05-01T05:49:48.761Z,1.60
2023-05-01T05:51:50.507Z,1.48
2023-05-01T05:53:52.360Z,1.75
2023-05-01T05:55:54.242Z,1.65
2023-05-01T05:57:56.010Z,2.13
2023-05-01T05:59:58.123Z,1.67
2023-05-01T06:02:00.601Z,1.88
2023-05-01T06:04:02.446Z,1.95
2023-05-01T06:06:04.595Z,2.33
2023-05-01T06:08:06.408Z,2.75
2023-05-01T06:10:08.757Z,2.42
2023-05-01T06:12:10.677Z,3.30
2023-05-01T06:14:16.803Z,2.33
2023-05-01T06:16:18.596Z,1.90
2023-05-01T06:18:20.606Z,2.58
2023-05-01T06:20:24.697Z,3.17
2023-05-01T06:22:26.496Z,3.15
2023-05-01T06:24:28.401Z,2.38
2023-05-01T06:26:30.187Z,3.67
2023-05-01T06:28:32.016Z,2.80
2023-05-01T06:30:33.860Z,3.10
2023-05-01T06:32:35.835Z,3.00
2023-05-01T06:34:37.665Z,2.85
2023-05-01T06:36:39.564Z,3.08
2023-05-01T06:38:44.846Z,3.33
2023-05-01T06:40:49.057Z,2.67
2023-05-01T06:42:50.934Z,3.40
2023-05-01T06:44:52.654Z,3.08
2023-05-01T06:46:54.656Z,3.22
2023-05-01T06:48:59.190Z,3.25
2023-05-01T06:51:01.004Z,2.50
2023-05-01T06:53:03.211Z,2.88
2023-05-01T06:55:05.481Z,3.20
2023-05-01T06:57:09.424Z,2.58
2023-05-01T06:59:11.336Z,2.67
2023-05-01T07:01:13.126Z,3.40
2023-05-01T07:03:15.127Z,4.28
2023-05-01T07:05:16.928Z,3.30
2023-05-01T07:07:18.739Z,2.47
2023-05-01T07:09:22.950Z,2.63
2023-05-01T07:11:27.005Z,2.70
2023-05-01T07:13:28.707Z,2.70
2023-05-01T07:15:30.457Z,2.90
2023-05-01T07:17:32.358Z,3.05
2023-05-01T07:19:34.240Z,2.50
2023-05-01T07:21:38.434Z,2.33
2023-05-01T07:23:40.318Z,2.60
2023-05-01T07:25:42.957Z,3.05
2023-05-01T07:27:44.772Z,3.10
2023-05-01T07:29:46.596Z,2.75
2023-05-01T07:31:48.375Z,3.50
2023-05-01T07:33:51.088Z,2.25
2023-05-01T07:35:53.475Z,2.53
2023-05-01T07:37:55.478Z,2.70
2023-05-01T07:39:58.650Z,2.38
2023-05-01T07:42:00.632Z,2.75
2023-05-01T07:44:02.684Z,2.50
2023-05-01T07:46:05.636Z,2.78
2023-05-01T07:48:07.581Z,2.67
2023-05-01T07:50:11.730Z,2.25
2023-05-01T07:52:13.468Z,2.38
2023-05-01T07:54:16.577Z,2.28
2023-05-01T07:56:21.494Z,2.60
2023-05-01T07:58:23.277Z,2.28
2023-05-01T08:00:25.276Z,2.25
2023-05-01T08:02:27.512Z,2.53
2023-05-01T08:04:29.780Z,3.33
2023-05-01T08:06:32.235Z,2.92
2023-05-01T08:08:34.284Z,3.13
2023-05-01T08:10:36.442Z,2.92
2023-05-01T08:12:38.322Z,2.95
2023-05-01T08:14:40.050Z,2.53
2023-05-01T08:16:42.079Z,2.88
2023-05-01T08:18:43.972Z,2.35
2023-05-01T08:20:48.313Z,2.47
2023-05-01T08:22:50.210Z,2.20
2023-05-01T08:24:52.286Z,2.70
2023-05-01T08:26:54.229Z,2.60
2023-05-01T08:28:56.179Z,2.70
2023-05-01T08:30:57.992Z,2.80
2023-05-01T08:32:59.825Z,2.25
2023-05-01T08:35:02.066Z,2.90
2023-05-01T08:37:03.932Z,2.83
2023-05-01T08:39:05.926Z,2.85
2023-05-01T08:41:08.620Z,2.53
2023-05-01T08:43:10.763Z,2.83
2023-05-01T08:45:13.153Z,2.30
2023-05-01T08:47:18.108Z,5.35
2023-05-01T08:49:22.891Z,3.58
2023-05-01T08:51:31.031Z,2.88
2023-05-01T08:53:34.746Z,2.97
2023-05-01T08:55:37.300Z,2.40
2023-05-01T08:57:40.345Z,2.70
2023-05-01T08:59:42.149Z,3.25
2023-05-01T09:01:47.338Z,3.20
2023-05-01T09:03:54.999Z,3.47
2023-05-01T09:05:57.622Z,3.30
2023-05-01T09:08:00.703Z,2.42
2023-05-01T09:10:02.626Z,2.38
2023-05-01T09:12:23.598Z,2.85
2023-05-01T09:14:29.515Z,2.40
2023-05-01T09:16:32.126Z,2.60
2023-05-01T09:18:35.265Z,2.42
2023-05-01T09:20:38.015Z,2.90
2023-05-01T09:22:40.148Z,2.75
2023-05-01T09:24:41.985Z,2.65
2023-05-01T09:26:46.199Z,2.83
2023-05-01T09:28:48.704Z,2.42
2023-05-01T09:30:51.445Z,2.92
2023-05-01T09:33:13.548Z,3.17
2023-05-01T09:35:17.680Z,2.95
2023-05-01T09:37:30.987Z,2.70
2023-05-01T09:39:32.896Z,2.28
2023-05-01T09:41:34.774Z,2.50
2023-05-01T09:43:36.644Z,1.90
2023-05-01T09:45:40.353Z,2.30
2023-05-01T09:47:44.264Z,2.20
2023-05-01T09:49:49.319Z,2.60
2023-05-01T09:51:51.264Z,2.05
2023-05-01T09:53:54.798Z,2.20
2023-05-01T09:56:07.229Z,2.35
2023-05-01T09:58:28.385Z,2.03
2023-05-01T10:00:30.497Z,2.15
2023-05-01T10:02:32.574Z,2.25
2023-05-01T10:04:35.745Z,2.30
2023-05-01T10:06:38.952Z,3.17
2023-05-01T10:08:46.777Z,2.63
2023-05-01T10:11:00.953Z,1.90
2023-05-01T10:13:14.744Z,2.00
2023-05-01T10:15:25.396Z,2.13
2023-05-01T10:17:28.996Z,1.55
2023-05-01T10:19:31.574Z,1.70
2023-05-01T10:21:34.494Z,1.40
2023-05-01T10:23:36.711Z,1.50
2023-05-01T10:25:42.188Z,1.50
2023-05-01T10:27:44.027Z,1.52
2023-05-01T10:29:52.656Z,1.67
2023-05-01T10:31:56.764Z,1.50
2023-05-01T10:34:01.001Z,1.30
2023-05-01T10:36:04.202Z,1.20
2023-05-01T10:38:10.763Z,1.15
2023-05-01T10:40:32.116Z,1.20
2023-05-01T10:42:34.131Z,1.30
2023-05-01T10:44:36.209Z,1.23
2023-05-01T10:46:38.454Z,1.10
2023-05-01T10:48:41.208Z,1.33
2023-05-01T10:51:02.332Z,1.75
2023-05-01T10:53:12.419Z,1.15
2023-05-01T10:55:33.176Z,0.88
2023-05-01T10:57:44.429Z,1.00
2023-05-01T11:00:02.561Z,1.00
2023-05-01T11:02:22.774Z,0.70
2023-05-01T11:04:25.229Z,0.95
2023-05-01T11:06:27.908Z,0.60
2023-05-01T11:08:31.960Z,0.75
2023-05-01T11:10:33.872Z,0.80
2023-05-01T11:12:46.705Z,0.85
2023-05-01T11:15:07.590Z,0.90
2023-05-01T11:17:09.471Z,1.00
2023-05-01T11:19:22.413Z,0.95
2023-05-01T11:21:33.633Z,1.02
2023-05-01T11:23:36.840Z,0.85
2023-05-01T11:25:38.695Z,0.50
2023-05-01T11:27:40.593Z,0.85
2023-05-01T11:29:45.294Z,1.08
2023-05-01T11:31:49.143Z,0.80
2023-05-01T11:33:51.192Z,0.90
2023-05-01T11:36:02.265Z,0.80
2023-05-01T11:38:04.156Z,0.93
2023-05-01T11:40:25.033Z,0.98
2023-05-01T11:42:27.794Z,0.90
2023-05-01T11:44:30.471Z,0.88
2023-05-01T11:46:33.982Z,0.98
2023-05-01T11:48:36.018Z,1.10
2023-05-01T11:50:39.036Z,1.05
2023-05-01T11:52:49.633Z,1.20
2023-05-01T11:54:51.578Z,1.17
2023-05-01T11:57:01.270Z,1.00
2023-05-01T11:59:12.339Z,0.73
2023-05-01T12:01:14.458Z,0.80
2023-05-01T12:03:16.410Z,0.73
2023-05-01T12:05:18.644Z,0.65
2023-05-01T12:07:22.559Z,1.00
2023-05-01T12:09:27.130Z,0.70
2023-05-01T12:11:29.199Z,0.82
2023-05-01T12:13:31.416Z,1.27
2023-05-01T12:15:37.650Z,0.88
2023-05-01T12:17:39.721Z,1.00
2023-05-01T12:19:49.283Z,0.70
2023-05-01T12:22:06.735Z,0.80
2023-05-01T12:24:10.884Z,0.60
2023-05-01T12:26:23.997Z,0.60
2023-05-01T12:28:27.848Z,0.60
2023-05-01T12:30:30.147Z,0.60
2023-05-01T12:32:33.862Z,0.57
2023-05-01T12:34:36.034Z,0.70
2023-05-01T12:36:38.510Z,0.40
2023-05-01T12:38:40.512Z,0.50
2023-05-01T12:40:54.532Z,0.30
2023-05-01T12:42:58.226Z,0.50
2023-05-01T12:45:01.858Z,0.50
2023-05-01T12:47:06.375Z,0.63
2023-05-01T12:49:08.318Z,0.40
2023-05-01T12:51:18.085Z,0.80
2023-05-01T12:53:23.147Z,0.50
2023-05-01T12:55:25.369Z,0.88
2023-05-01T12:57:27.831Z,1.75
2023-05-01T12:59:29.940Z,1.00
2023-05-01T13:01:31.939Z,1.67
2023-05-01T13:03:38.307Z,1.58
2023-05-01T13:05:52.592Z,1.27
2023-05-01T13:07:54.562Z,1.25
2023-05-01T13:09:59.413Z,1.00
2023-05-01T13:12:07.307Z,1.30
2023-05-01T13:14:10.212Z,0.60
2023-05-01T13:16:14.375Z,0.80
2023-05-01T13:18:16.413Z,0.60
2023-05-01T13:20:27.095Z,0.57
2023-05-01T13:24:45.012Z,0.60
2023-05-01T13:26:47.010Z,0.73
2023-05-01T13:28:49.256Z,0.70
2023-05-01T13:30:51.312Z,0.80
2023-05-01T13:32:53.300Z,1.00
2023-05-01T13:34:58.514Z,0.60
2023-05-01T13:37:02.398Z,0.73
2023-05-01T13:39:04.392Z,1.13
2023-05-01T13:41:06.411Z,0.90
2023-05-01T13:43:16.550Z,0.60
2023-05-01T13:45:20.762Z,1.00
2023-05-01T13:47:27.886Z,0.82
2023-05-01T13:49:29.975Z,0.70
2023-05-01T13:51:32.781Z,0.80
2023-05-01T13:53:35.194Z,1.08
2023-05-01T13:55:41.186Z,0.75
2023-05-01T13:57:43.480Z,0.57
2023-05-01T13:59:47.331Z,1.00
2023-05-01T14:01:49.407Z,0.47
2023-05-01T14:03:51.842Z,0.90
2023-05-01T14:05:53.988Z,0.73
2023-05-01T14:08:00.509Z,0.52
2023-05-01T14:10:02.583Z,0.40
2023-05-01T14:12:04.781Z,0.68
2023-05-01T14:14:06.731Z,0.57
2023-05-01T14:16:11.908Z,0.45
2023-05-01T14:18:17.968Z,0.50
2023-05-01T14:20:20.122Z,0.50
2023-05-01T14:22:22.446Z,0.70
2023-05-01T14:24:24.425Z,0.40
2023-05-01T14:26:26.608Z,0.60
2023-05-01T14:28:29.929Z,0.55
2023-05-01T14:30:34.586Z,0.45
2023-05-01T14:32:41.360Z,0.50
2023-05-01T14:34:43.385Z,0.50
2023-05-01T14:36:45.495Z,0.40
2023-05-01T14:38:49.505Z,0.40
2023-05-01T14:40:52.350Z,0.40
2023-05-01T14:42:55.376Z,0.50
2023-05-01T14:44:57.438Z,0.50
2023-05-01T14:47:00.479Z,0.40
2023-05-01T14:49:03.338Z,0.50
2023-05-01T14:51:06.651Z,0.30
2023-05-01T14:53:08.522Z,0.47
2023-05-01T14:55:12.329Z,0.45
2023-05-01T14:57:14.517Z,0.63
2023-05-01T14:59:17.023Z,0.30
2023-05-01T15:01:19.685Z,0.30
2023-05-01T15:03:21.934Z,0.47
2023-05-01T15:05:26.275Z,0.47
2023-05-01T15:07:28.047Z,0.40
2023-05-01T15:09:32.140Z,0.70
2023-05-01T15:11:33.982Z,0.55
2023-05-01T15:13:36.565Z,0.60
2023-05-01T15:15:38.502Z,0.50
2023-05-01T15:17:43.707Z,0.50
2023-05-01T15:19:45.527Z,0.55
2023-05-01T15:21:49.549Z,0.50
2023-05-01T15:23:51.454Z,0.70
2023-05-01T15:25:53.701Z,0.50
2023-05-01T15:27:55.941Z,0.50
2023-05-01T15:29:57.839Z,0.50
2023-05-01T15:32:11.345Z,0.40
2023-05-01T15:34:14.521Z,0.68
2023-05-01T15:36:16.816Z,0.75
2023-05-01T15:38:20.563Z,0.80
2023-05-01T15:40:22.758Z,0.75
2023-05-01T15:42:24.579Z,0.52
2023-05-01T15:44:27.833Z,1.10
2023-05-01T15:46:29.721Z,0.55
2023-05-01T15:48:31.694Z,0.60
2023-05-01T15:50:33.536Z,0.43
2023-05-01T15:52:36.302Z,0.50
2023-05-01T15:54:38.230Z,0.52
2023-05-01T15:56:40.145Z,0.45
2023-05-01T15:58:44.361Z,0.50
2023-05-01T16:00:47.598Z,0.40
2023-05-01T16:02:50.887Z,0.40
2023-05-01T16:04:54.175Z,0.40
2023-05-01T16:06:56.336Z,0.57
2023-05-01T16:08:59.475Z,0.50
2023-05-01T16:11:01.351Z,0.60
2023-05-01T16:13:06.372Z,0.40
2023-05-01T16:15:08.952Z,0.38
2023-05-01T16:17:10.933Z,0.57
2023-05-01T16:19:19.375Z,0.50
2023-05-01T16:21:33.059Z,0.60
2023-05-01T16:23:34.999Z,0.50
2023-05-01T16:25:42.683Z,0.45
2023-05-01T16:27:46.382Z,0.57
2023-05-01T16:29:48.233Z,0.77
2023-05-01T16:31:50.152Z,0.80
2023-05-01T16:33:54.030Z,0.57
2023-05-01T16:35:55.858Z,0.68
2023-05-01T16:38:00.098Z,0.65
2023-05-01T16:40:02.345Z,0.57
2023-05-01T16:42:04.655Z,0.60
2023-05-01T16:44:06.472Z,0.70
2023-05-01T16:46:09.185Z,0.68
2023-05-01T16:48:11.659Z,0.80
2023-05-01T16:50:14.163Z,0.90
2023-05-01T16:52:17.267Z,0.52
2023-05-01T16:54:19.372Z,0.85
2023-05-01T16:56:22.097Z,0.77
2023-05-01T16:58:23.993Z,12.07
2023-05-01T17:00:29.608Z,1.67
2023-05-01T17:02:34.011Z,0.63
2023-05-01T17:04:36.129Z,1.33
2023-05-01T17:06:38.231Z,0.80
2023-05-01T17:08:40.281Z,0.80
2023-05-01T17:10:42.173Z,0.75
2023-05-01T17:12:44.690Z,0.70
2023-05-01T17:14:46.547Z,0.55
2023-05-01T17:16:50.939Z,0.70
2023-05-01T17:18:52.955Z,0.68
2023-05-01T17:20:55.015Z,0.70
2023-05-01T17:22:56.902Z,0.80
2023-05-01T17:25:02.381Z,0.80
2023-05-01T17:27:04.454Z,1.20
2023-05-01T17:29:06.444Z,0.68
2023-05-01T17:31:08.671Z,0.80
2023-05-01T17:33:10.516Z,0.70
2023-05-01T17:35:12.443Z,1.08
2023-05-01T17:37:15.482Z,0.80
2023-05-01T17:39:21.915Z,0.63
2023-05-01T17:41:24.894Z,0.70
2023-05-01T17:43:26.973Z,1.25
2023-05-01T17:45:29.159Z,0.95
2023-05-01T17:47:31.092Z,0.70
2023-05-01T17:49:33.343Z,1.80
2023-05-01T17:51:35.335Z,0.80
2023-05-01T17:53:37.931Z,1.30
2023-05-01T17:55:40.264Z,1.00
2023-05-01T17:57:42.312Z,0.80
2023-05-01T17:59:44.216Z,0.75
2023-05-01T18:01:46.166Z,1.00
2023-05-01T18:03:49.197Z,1.02
2023-05-01T18:05:54.775Z,0.90
2023-05-01T18:07:56.590Z,1.10
2023-05-01T18:09:58.922Z,0.98
2023-05-01T18:12:01.175Z,1.02
2023-05-01T18:14:04.215Z,0.98
2023-05-01T18:16:06.608Z,1.17
2023-05-01T18:18:08.556Z,1.02
2023-05-01T18:20:11.104Z,1.15
2023-05-01T18:22:15.094Z,1.20
2023-05-01T18:24:16.972Z,1.10
2023-05-01T18:26:19.574Z,1.15
2023-05-01T18:28:22.007Z,1.42
2023-05-01T18:30:24.127Z,1.30
2023-05-01T18:32:35.800Z,1.50
2023-05-01T18:34:50.020Z,1.30
2023-05-01T18:36:54.800Z,1.00
2023-05-01T18:38:56.776Z,1.52
2023-05-01T18:40:58.637Z,1.55
2023-05-01T18:43:00.495Z,1.30
2023-05-01T18:45:02.331Z,1.40
2023-05-01T18:47:04.468Z,1.20
2023-05-01T18:49:06.537Z,1.30
2023-05-01T18:51:09.708Z,1.40
2023-05-01T18:53:11.616Z,1.40
2023-05-01T18:55:16.923Z,1.30
2023-05-01T18:57:18.794Z,1.30
2023-05-01T18:59:21.998Z,1.20
2023-05-01T19:01:27.240Z,1.20
2023-05-01T19:03:29.438Z,1.60
2023-05-01T19:05:31.734Z,1.65
2023-05-01T19:07:33.693Z,1.30
2023-05-01T19:09:35.552Z,1.58
2023-05-01T19:11:37.449Z,1.33
2023-05-01T19:13:39.230Z,1.50
2023-05-01T19:15:41.512Z,1.40
2023-05-01T19:17:43.476Z,1.50
2023-05-01T19:19:45.346Z,1.67
2023-05-01T19:21:47.209Z,1.27
2023-05-01T19:23:49.754Z,1.95
2023-05-01T19:25:51.712Z,1.33
2023-05-01T19:27:53.752Z,2.50
2023-05-01T19:29:55.651Z,3.75
2023-05-01T19:31:57.539Z,2.75
2023-05-01T19:33:59.429Z,2.28
2023-05-01T19:36:01.413Z,1.60
2023-05-01T19:38:03.409Z,1.48
2023-05-01T19:40:07.556Z,1.38
2023-05-01T19:42:12.490Z,2.10
2023-05-01T19:44:16.831Z,1.48
2023-05-01T19:46:18.756Z,2.20
2023-05-01T19:48:20.726Z,2.90
2023-05-01T19:50:22.726Z,3.72
2023-05-01T19:52:24.527Z,2.85
2023-05-01T19:54:26.450Z,2.38
2023-05-01T19:56:28.493Z,2.63
2023-05-01T19:58:30.682Z,2.80
2023-05-01T20:00:32.609Z,2.17
2023-05-01T20:02:34.701Z,2.25
2023-05-01T20:04:36.739Z,2.25
2023-05-01T20:06:38.627Z,2.45
2023-05-01T20:08:41.654Z,2.78
2023-05-01T20:10:43.495Z,2.70
2023-05-01T20:12:45.568Z,3.13
2023-05-01T20:14:47.552Z,2.47
2023-05-01T20:16:50.630Z,2.55
2023-05-01T20:18:52.687Z,2.55
2023-05-01T20:20:54.553Z,2.72
2023-05-01T20:23:10.906Z,2.20
2023-05-01T20:25:14.051Z,2.40
2023-05-01T20:27:16.016Z,2.53
2023-05-01T20:29:18.220Z,2.33
2023-05-01T20:31:21.969Z,1.95
2023-05-01T20:33:24.731Z,2.58
2023-05-01T20:35:26.586Z,2.35
2023-05-01T20:37:28.435Z,2.35
2023-05-01T20:39:30.760Z,1.85
2023-05-01T20:41:32.702Z,2.67
2023-05-01T20:43:35.389Z,2.22
2023-05-01T20:45:37.720Z,1.90
2023-05-01T20:47:39.806Z,1.85
2023-05-01T20:49:41.681Z,1.80
2023-05-01T20:51:43.612Z,2.10
2023-05-01T20:53:45.836Z,1.80
2023-05-01T20:55:47.882Z,1.70
2023-05-01T20:57:49.809Z,1.48
2023-05-01T20:59:51.694Z,1.58
2023-05-01T21:01:53.605Z,1.50
2023-05-01T21:03:55.796Z,1.45
2023-05-01T21:05:59.671Z,1.77
2023-05-01T21:08:03.033Z,1.40
2023-05-01T21:10:07.983Z,1.98
2023-05-01T21:12:09.821Z,1.70
2023-05-01T21:14:11.943Z,1.30
2023-05-01T21:16:15.900Z,1.27
2023-05-01T21:18:20.445Z,1.40
2023-05-01T21:20:31.594Z,1.23
2023-05-01T21:22:33.504Z,1.30
2023-05-01T21:24:36.611Z,1.27
2023-05-01T21:26:38.933Z,1.23
2023-05-01T21:28:40.899Z,1.20
2023-05-01T21:30:42.815Z,0.90
2023-05-01T21:32:44.708Z,1.13
2023-05-01T21:34:46.867Z,1.20
2023-05-01T21:36:49.375Z,1.10
2023-05-01T21:38:51.364Z,1.27
2023-05-01T21:40:53.299Z,1.08
2023-05-01T21:42:55.350Z,1.00
2023-05-01T21:45:01.026Z,1.00
2023-05-01T21:47:03.020Z,1.10
2023-05-01T21:49:04.854Z,1.10
2023-05-01T21:51:06.795Z,0.95
2023-05-01T21:53:08.815Z,0.90
2023-05-01T21:55:16.288Z,0.80
2023-05-01T21:57:18.195Z,1.27
2023-05-01T21:59:20.050Z,1.00
2023-05-01T22:01:22.881Z,1.10
2023-05-01T22:03:27.400Z,1.15
2023-05-01T22:05:32.173Z,1.00
2023-05-01T22:07:34.273Z,1.27
2023-05-01T22:09:36.035Z,1.23
2023-05-01T22:11:37.738Z,1.52
2023-05-01T22:13:39.480Z,1.38
2023-05-01T22:15:41.679Z,1.08
2023-05-01T22:17:44.637Z,1.52
2023-05-01T22:19:46.508Z,1.15
2023-05-01T22:21:48.439Z,1.10
2023-05-01T22:23:50.560Z,1.00
2023-05-01T22:25:59.575Z,1.00
2023-05-01T22:28:04.371Z,0.98
2023-05-01T22:30:07.359Z,0.88
2023-05-01T22:32:09.340Z,0.85
2023-05-01T22:34:11.273Z,0.88
2023-05-01T22:36:14.067Z,0.80
2023-05-01T22:38:15.842Z,0.88
2023-05-01T22:40:18.181Z,1.08
2023-05-01T22:42:20.069Z,1.30
2023-05-01T22:44:25.196Z,0.90
2023-05-01T22:46:27.440Z,1.45
2023-05-01T22:48:29.926Z,1.10
2023-05-01T22:50:31.797Z,1.27
2023-05-01T22:52:33.833Z,1.13
2023-05-01T22:54:35.635Z,0.93
2023-05-01T22:56:37.824Z,1.05
2023-05-01T22:58:39.706Z,1.00
2023-05-01T23:00:41.774Z,0.85
2023-05-01T23:02:43.888Z,1.30
2023-05-01T23:04:46.372Z,0.88
2023-05-01T23:06:48.424Z,1.13
2023-05-01T23:08:54.033Z,0.88
2023-05-01T23:10:55.910Z,1.30
2023-05-01T23:12:58.013Z,1.27
2023-05-01T23:15:00.613Z,1.20
2023-05-01T23:17:02.438Z,1.33
2023-05-01T23:19:04.718Z,1.25
2023-05-01T23:21:06.460Z,1.00
2023-05-01T23:23:14.017Z,1.10
2023-05-01T23:25:23.005Z,1.17
2023-05-01T23:27:24.835Z,0.93
2023-05-01T23:29:27.639Z,1.20
2023-05-01T23:31:32.998Z,1.10
2023-05-01T23:33:37.991Z,0.95
2023-05-01T23:35:39.720Z,1.02
2023-05-01T23:37:41.866Z,1.13
2023-05-01T23:39:43.606Z,1.48
2023-05-01T23:41:45.621Z,1.35
2023-05-01T23:43:48.256Z,1.30
2023-05-01T23:45:50.017Z,1.00
2023-05-01T23:47:52.067Z,1.60
2023-05-01T23:49:53.929Z,1.45
2023-05-01T23:51:56.021Z,1.90
2023-05-01T23:53:58.444Z,1.30
2023-05-01T23:56:00.184Z,1.33
2023-05-01T23:58:02.757Z,1.15
